RJOP(METAR)
08/15 04:00
METAR RJOP 141900Z 35002KT 9999 BKN004 28/24 Q1008 RMK 7ST004 A2979=
戻る
トップページへ戻る
IMOC Co,.Ltd.